sensor_id;sensor_type;location;lat;lon;timestamp;P1;durP1;ratioP1;P2;durP2;ratioP2
72639;SDS011;60683;51.730;8.762;2022-07-23T00:00:30;9.65;;;5.50;;
72639;SDS011;60683;51.730;8.762;2022-07-23T00:03:04;13.93;;;6.20;;
72639;SDS011;60683;51.730;8.762;2022-07-23T00:05:32;11.43;;;5.78;;
72639;SDS011;60683;51.730;8.762;2022-07-23T00:07:59;11.68;;;5.82;;
72639;SDS011;60683;51.730;8.762;2022-07-23T00:10:26;11.15;;;5.82;;
72639;SDS011;60683;51.730;8.762;2022-07-23T00:12:54;9.05;;;5.82;;
72639;SDS011;60683;51.730;8.762;2022-07-23T00:15:21;12.73;;;6.03;;
72639;SDS011;60683;51.730;8.762;2022-07-23T00:17:48;10.82;;;6.95;;
72639;SDS011;60683;51.730;8.762;2022-07-23T00:20:17;10.25;;;6.20;;
72639;SDS011;60683;51.730;8.762;2022-07-23T00:22:47;12.02;;;5.93;;
72639;SDS011;60683;51.730;8.762;2022-07-23T00:25:14;9.18;;;5.22;;
72639;SDS011;60683;51.730;8.762;2022-07-23T00:27:42;10.05;;;4.78;;
72639;SDS011;60683;51.730;8.762;2022-07-23T00:30:10;11.25;;;5.40;;
72639;SDS011;60683;51.730;8.762;2022-07-23T00:32:45;10.02;;;5.95;;
72639;SDS011;60683;51.730;8.762;2022-07-23T00:35:13;10.38;;;5.15;;
72639;SDS011;60683;51.730;8.762;2022-07-23T00:37:42;12.85;;;6.00;;
72639;SDS011;60683;51.730;8.762;2022-07-23T00:40:10;10.93;;;5.88;;
72639;SDS011;60683;51.730;8.762;2022-07-23T00:42:38;11.43;;;6.05;;
72639;SDS011;60683;51.730;8.762;2022-07-23T00:45:06;9.63;;;5.78;;
72639;SDS011;60683;51.730;8.762;2022-07-23T00:47:34;9.80;;;5.40;;
72639;SDS011;60683;51.730;8.762;2022-07-23T00:50:02;9.43;;;5.40;;
72639;SDS011;60683;51.730;8.762;2022-07-23T00:52:30;10.45;;;6.20;;
72639;SDS011;60683;51.730;8.762;2022-07-23T00:55:00;10.30;;;6.10;;
72639;SDS011;60683;51.730;8.762;2022-07-23T00:57:27;9.75;;;5.72;;
72639;SDS011;60683;51.730;8.762;2022-07-23T00:59:55;10.48;;;5.40;;
72639;SDS011;60683;51.730;8.762;2022-07-23T01:02:23;9.98;;;5.78;;
72639;SDS011;60683;51.730;8.762;2022-07-23T01:04:51;12.60;;;6.10;;
72639;SDS011;60683;51.730;8.762;2022-07-23T01:07:19;10.90;;;6.00;;
72639;SDS011;60683;51.730;8.762;2022-07-23T01:09:46;10.02;;;5.75;;
72639;SDS011;60683;51.730;8.762;2022-07-23T01:12:15;9.57;;;5.38;;
72639;SDS011;60683;51.730;8.762;2022-07-23T01:14:42;10.95;;;6.10;;
72639;SDS011;60683;51.730;8.762;2022-07-23T01:17:10;9.73;;;5.57;;
72639;SDS011;60683;51.730;8.762;2022-07-23T01:19:37;10.18;;;5.43;;
72639;SDS011;60683;51.730;8.762;2022-07-23T01:22:05;8.75;;;5.32;;
72639;SDS011;60683;51.730;8.762;2022-07-23T01:24:34;11.00;;;6.53;;
72639;SDS011;60683;51.730;8.762;2022-07-23T01:27:02;11.23;;;6.03;;
72639;SDS011;60683;51.730;8.762;2022-07-23T01:29:31;11.25;;;6.07;;
72639;SDS011;60683;51.730;8.762;2022-07-23T01:31:58;10.18;;;5.53;;
72639;SDS011;60683;51.730;8.762;2022-07-23T01:34:26;12.82;;;6.20;;
72639;SDS011;60683;51.730;8.762;2022-07-23T01:36:53;10.85;;;5.88;;
72639;SDS011;60683;51.730;8.762;2022-07-23T01:39:20;10.32;;;6.05;;
72639;SDS011;60683;51.730;8.762;2022-07-23T01:41:50;10.13;;;5.78;;
72639;SDS011;60683;51.730;8.762;2022-07-23T01:44:17;10.45;;;6.03;;
72639;SDS011;60683;51.730;8.762;2022-07-23T01:46:44;9.98;;;6.25;;
72639;SDS011;60683;51.730;8.762;2022-07-23T01:49:12;12.65;;;6.50;;
72639;SDS011;60683;51.730;8.762;2022-07-23T01:51:39;13.15;;;7.00;;
72639;SDS011;60683;51.730;8.762;2022-07-23T01:54:25;12.90;;;6.63;;
72639;SDS011;60683;51.730;8.762;2022-07-23T01:56:54;13.80;;;6.65;;
72639;SDS011;60683;51.730;8.762;2022-07-23T01:59:21;13.23;;;7.45;;
72639;SDS011;60683;51.730;8.762;2022-07-23T02:01:49;13.38;;;6.60;;
72639;SDS011;60683;51.730;8.762;2022-07-23T02:04:17;13.35;;;6.95;;
72639;SDS011;60683;51.730;8.762;2022-07-23T02:06:44;12.68;;;6.47;;
72639;SDS011;60683;51.730;8.762;2022-07-23T02:09:12;12.00;;;6.05;;
72639;SDS011;60683;51.730;8.762;2022-07-23T02:11:40;14.95;;;6.72;;
72639;SDS011;60683;51.730;8.762;2022-07-23T02:14:09;11.90;;;6.32;;
72639;SDS011;60683;51.730;8.762;2022-07-23T02:16:36;11.13;;;6.72;;
72639;SDS011;60683;51.730;8.762;2022-07-23T02:19:04;13.40;;;7.43;;
72639;SDS011;60683;51.730;8.762;2022-07-23T02:21:31;16.05;;;7.78;;
72639;SDS011;60683;51.730;8.762;2022-07-23T02:23:59;11.57;;;7.28;;
72639;SDS011;60683;51.730;8.762;2022-07-23T02:26:26;15.10;;;7.43;;
72639;SDS011;60683;51.730;8.762;2022-07-23T02:28:53;11.60;;;6.38;;
72639;SDS011;60683;51.730;8.762;2022-07-23T02:31:22;14.13;;;7.68;;
72639;SDS011;60683;51.730;8.762;2022-07-23T02:33:50;16.17;;;7.75;;
72639;SDS011;60683;51.730;8.762;2022-07-23T02:36:17;13.18;;;8.00;;
72639;SDS011;60683;51.730;8.762;2022-07-23T02:38:44;15.05;;;8.27;;
72639;SDS011;60683;51.730;8.762;2022-07-23T02:41:12;14.50;;;7.53;;
72639;SDS011;60683;51.730;8.762;2022-07-23T02:43:40;15.48;;;7.53;;
72639;SDS011;60683;51.730;8.762;2022-07-23T02:46:08;15.27;;;8.23;;
72639;SDS011;60683;51.730;8.762;2022-07-23T02:48:36;16.15;;;7.97;;
72639;SDS011;60683;51.730;8.762;2022-07-23T02:51:04;17.50;;;7.68;;
72639;SDS011;60683;51.730;8.762;2022-07-23T02:53:32;16.02;;;8.10;;
72639;SDS011;60683;51.730;8.762;2022-07-23T02:55:59;13.95;;;7.78;;
72639;SDS011;60683;51.730;8.762;2022-07-23T02:58:27;14.43;;;7.63;;
72639;SDS011;60683;51.730;8.762;2022-07-23T03:00:54;16.05;;;8.23;;
72639;SDS011;60683;51.730;8.762;2022-07-23T03:03:21;14.38;;;8.35;;
72639;SDS011;60683;51.730;8.762;2022-07-23T03:05:50;15.57;;;7.57;;
72639;SDS011;60683;51.730;8.762;2022-07-23T03:08:17;20.88;;;9.45;;
72639;SDS011;60683;51.730;8.762;2022-07-23T03:10:45;16.50;;;8.55;;
72639;SDS011;60683;51.730;8.762;2022-07-23T03:13:12;17.73;;;9.15;;
72639;SDS011;60683;51.730;8.762;2022-07-23T03:15:40;16.20;;;9.02;;
72639;SDS011;60683;51.730;8.762;2022-07-23T03:18:07;16.02;;;8.75;;
72639;SDS011;60683;51.730;8.762;2022-07-23T03:20:34;21.83;;;8.48;;
72639;SDS011;60683;51.730;8.762;2022-07-23T03:23:04;16.73;;;8.63;;
72639;SDS011;60683;51.730;8.762;2022-07-23T03:25:31;16.15;;;8.63;;
72639;SDS011;60683;51.730;8.762;2022-07-23T03:27:59;16.95;;;8.43;;
72639;SDS011;60683;51.730;8.762;2022-07-23T03:30:26;15.02;;;8.90;;
72639;SDS011;60683;51.730;8.762;2022-07-23T03:32:53;16.52;;;8.73;;
72639;SDS011;60683;51.730;8.762;2022-07-23T03:35:21;15.02;;;8.50;;
72639;SDS011;60683;51.730;8.762;2022-07-23T03:37:49;14.30;;;8.32;;
72639;SDS011;60683;51.730;8.762;2022-07-23T03:40:17;15.45;;;8.30;;
72639;SDS011;60683;51.730;8.762;2022-07-23T03:42:45;17.30;;;8.85;;
72639;SDS011;60683;51.730;8.762;2022-07-23T03:45:12;15.68;;;8.65;;
72639;SDS011;60683;51.730;8.762;2022-07-23T03:47:39;18.48;;;9.20;;
72639;SDS011;60683;51.730;8.762;2022-07-23T03:50:07;18.08;;;9.32;;
72639;SDS011;60683;51.730;8.762;2022-07-23T03:52:35;18.17;;;9.70;;
72639;SDS011;60683;51.730;8.762;2022-07-23T03:55:02;17.40;;;9.40;;
72639;SDS011;60683;51.730;8.762;2022-07-23T03:57:31;19.83;;;8.98;;
72639;SDS011;60683;51.730;8.762;2022-07-23T03:59:59;18.75;;;8.93;;
72639;SDS011;60683;51.730;8.762;2022-07-23T04:02:26;16.67;;;8.95;;
72639;SDS011;60683;51.730;8.762;2022-07-23T04:04:53;19.90;;;9.18;;
72639;SDS011;60683;51.730;8.762;2022-07-23T04:07:21;19.52;;;9.65;;
72639;SDS011;60683;51.730;8.762;2022-07-23T04:09:48;16.98;;;9.55;;
72639;SDS011;60683;51.730;8.762;2022-07-23T04:12:15;17.73;;;9.52;;
72639;SDS011;60683;51.730;8.762;2022-07-23T04:14:44;18.00;;;9.27;;
72639;SDS011;60683;51.730;8.762;2022-07-23T04:17:12;17.98;;;9.23;;
72639;SDS011;60683;51.730;8.762;2022-07-23T04:19:39;19.25;;;10.15;;
72639;SDS011;60683;51.730;8.762;2022-07-23T04:22:07;19.23;;;9.82;;
72639;SDS011;60683;51.730;8.762;2022-07-23T04:24:35;17.83;;;9.82;;
72639;SDS011;60683;51.730;8.762;2022-07-23T04:27:03;20.60;;;9.20;;
72639;SDS011;60683;51.730;8.762;2022-07-23T04:29:30;19.63;;;9.75;;
72639;SDS011;60683;51.730;8.762;2022-07-23T04:31:59;22.33;;;9.80;;
72639;SDS011;60683;51.730;8.762;2022-07-23T04:34:26;19.35;;;10.40;;
72639;SDS011;60683;51.730;8.762;2022-07-23T04:36:54;18.90;;;10.38;;
72639;SDS011;60683;51.730;8.762;2022-07-23T04:39:21;21.05;;;9.98;;
72639;SDS011;60683;51.730;8.762;2022-07-23T04:41:48;19.23;;;10.43;;
72639;SDS011;60683;51.730;8.762;2022-07-23T04:44:16;21.20;;;10.15;;
72639;SDS011;60683;51.730;8.762;2022-07-23T04:46:43;19.90;;;10.68;;
72639;SDS011;60683;51.730;8.762;2022-07-23T04:49:12;15.82;;;8.50;;
72639;SDS011;60683;51.730;8.762;2022-07-23T04:51:39;17.80;;;8.18;;
72639;SDS011;60683;51.730;8.762;2022-07-23T04:54:07;14.95;;;7.43;;
72639;SDS011;60683;51.730;8.762;2022-07-23T04:56:34;13.70;;;7.75;;
72639;SDS011;60683;51.730;8.762;2022-07-23T04:59:01;14.20;;;7.32;;
72639;SDS011;60683;51.730;8.762;2022-07-23T05:01:29;12.77;;;7.47;;
72639;SDS011;60683;51.730;8.762;2022-07-23T05:03:56;11.95;;;7.10;;
72639;SDS011;60683;51.730;8.762;2022-07-23T05:06:25;13.00;;;7.43;;
72639;SDS011;60683;51.730;8.762;2022-07-23T05:08:52;11.43;;;7.90;;
72639;SDS011;60683;51.730;8.762;2022-07-23T05:11:21;10.93;;;6.43;;
72639;SDS011;60683;51.730;8.762;2022-07-23T05:13:48;10.95;;;6.53;;
72639;SDS011;60683;51.730;8.762;2022-07-23T05:16:15;10.70;;;6.28;;
72639;SDS011;60683;51.730;8.762;2022-07-23T05:18:43;9.77;;;6.00;;
72639;SDS011;60683;51.730;8.762;2022-07-23T05:21:10;8.68;;;5.90;;
72639;SDS011;60683;51.730;8.762;2022-07-23T05:23:39;12.45;;;7.00;;
72639;SDS011;60683;51.730;8.762;2022-07-23T05:26:06;11.10;;;6.65;;
72639;SDS011;60683;51.730;8.762;2022-07-23T05:28:34;9.35;;;6.32;;
72639;SDS011;60683;51.730;8.762;2022-07-23T05:31:01;12.30;;;6.57;;
72639;SDS011;60683;51.730;8.762;2022-07-23T05:33:29;12.15;;;6.88;;
72639;SDS011;60683;51.730;8.762;2022-07-23T05:35:59;10.07;;;6.68;;
72639;SDS011;60683;51.730;8.762;2022-07-23T05:38:27;10.65;;;6.43;;
72639;SDS011;60683;51.730;8.762;2022-07-23T05:40:56;12.15;;;7.22;;
72639;SDS011;60683;51.730;8.762;2022-07-23T05:43:23;9.38;;;6.72;;
72639;SDS011;60683;51.730;8.762;2022-07-23T05:45:51;12.10;;;7.68;;
72639;SDS011;60683;51.730;8.762;2022-07-23T05:48:19;12.07;;;6.82;;
72639;SDS011;60683;51.730;8.762;2022-07-23T05:50:47;11.32;;;6.65;;
72639;SDS011;60683;51.730;8.762;2022-07-23T05:53:14;10.57;;;6.65;;
72639;SDS011;60683;51.730;8.762;2022-07-23T05:55:41;10.70;;;6.38;;
72639;SDS011;60683;51.730;8.762;2022-07-23T05:58:11;10.50;;;6.20;;
72639;SDS011;60683;51.730;8.762;2022-07-23T06:00:38;11.77;;;6.80;;
72639;SDS011;60683;51.730;8.762;2022-07-23T06:03:05;11.52;;;6.10;;
72639;SDS011;60683;51.730;8.762;2022-07-23T06:05:33;9.55;;;6.05;;
72639;SDS011;60683;51.730;8.762;2022-07-23T06:08:00;10.18;;;6.45;;
72639;SDS011;60683;51.730;8.762;2022-07-23T06:10:28;10.27;;;5.90;;
72639;SDS011;60683;51.730;8.762;2022-07-23T06:12:55;12.07;;;7.15;;
72639;SDS011;60683;51.730;8.762;2022-07-23T06:15:24;14.35;;;7.90;;
72639;SDS011;60683;51.730;8.762;2022-07-23T06:17:52;12.52;;;7.07;;
72639;SDS011;60683;51.730;8.762;2022-07-23T06:20:19;12.93;;;7.53;;
72639;SDS011;60683;51.730;8.762;2022-07-23T06:22:47;12.40;;;7.22;;
72639;SDS011;60683;51.730;8.762;2022-07-23T06:25:14;11.20;;;7.13;;
72639;SDS011;60683;51.730;8.762;2022-07-23T06:27:42;13.13;;;7.50;;
72639;SDS011;60683;51.730;8.762;2022-07-23T06:30:10;12.55;;;7.03;;
72639;SDS011;60683;51.730;8.762;2022-07-23T06:32:39;12.80;;;7.00;;
72639;SDS011;60683;51.730;8.762;2022-07-23T06:35:07;10.63;;;7.20;;
72639;SDS011;60683;51.730;8.762;2022-07-23T06:37:35;12.43;;;7.22;;
72639;SDS011;60683;51.730;8.762;2022-07-23T06:40:03;13.15;;;6.47;;
72639;SDS011;60683;51.730;8.762;2022-07-23T06:42:31;11.60;;;6.75;;
72639;SDS011;60683;51.730;8.762;2022-07-23T06:44:58;12.30;;;6.53;;
72639;SDS011;60683;51.730;8.762;2022-07-23T06:47:25;10.85;;;6.40;;
72639;SDS011;60683;51.730;8.762;2022-07-23T06:49:54;11.50;;;6.72;;
72639;SDS011;60683;51.730;8.762;2022-07-23T06:52:21;9.13;;;5.55;;
72639;SDS011;60683;51.730;8.762;2022-07-23T06:54:49;11.40;;;5.82;;
72639;SDS011;60683;51.730;8.762;2022-07-23T06:57:17;12.98;;;6.78;;
72639;SDS011;60683;51.730;8.762;2022-07-23T06:59:44;13.25;;;7.45;;
72639;SDS011;60683;51.730;8.762;2022-07-23T07:02:11;11.45;;;7.05;;
72639;SDS011;60683;51.730;8.762;2022-07-23T07:04:38;12.90;;;8.38;;
72639;SDS011;60683;51.730;8.762;2022-07-23T07:07:07;13.07;;;8.07;;
72639;SDS011;60683;51.730;8.762;2022-07-23T07:09:34;13.80;;;7.18;;
72639;SDS011;60683;51.730;8.762;2022-07-23T07:12:02;11.52;;;6.53;;
72639;SDS011;60683;51.730;8.762;2022-07-23T07:14:29;13.68;;;6.88;;
72639;SDS011;60683;51.730;8.762;2022-07-23T07:16:57;10.57;;;6.07;;
72639;SDS011;60683;51.730;8.762;2022-07-23T07:19:25;13.27;;;6.85;;
72639;SDS011;60683;51.730;8.762;2022-07-23T07:21:52;13.13;;;6.13;;
72639;SDS011;60683;51.730;8.762;2022-07-23T07:24:21;12.00;;;6.18;;
72639;SDS011;60683;51.730;8.762;2022-07-23T07:26:48;9.25;;;6.68;;
72639;SDS011;60683;51.730;8.762;2022-07-23T07:29:15;10.65;;;6.05;;
72639;SDS011;60683;51.730;8.762;2022-07-23T07:31:42;10.35;;;6.22;;
72639;SDS011;60683;51.730;8.762;2022-07-23T07:34:10;9.18;;;5.43;;
72639;SDS011;60683;51.730;8.762;2022-07-23T07:36:37;9.70;;;5.95;;
72639;SDS011;60683;51.730;8.762;2022-07-23T07:39:05;10.07;;;5.63;;
72639;SDS011;60683;51.730;8.762;2022-07-23T07:41:34;10.77;;;5.18;;
72639;SDS011;60683;51.730;8.762;2022-07-23T07:44:01;10.88;;;5.85;;
72639;SDS011;60683;51.730;8.762;2022-07-23T07:46:28;10.25;;;5.53;;
72639;SDS011;60683;51.730;8.762;2022-07-23T07:48:56;8.77;;;4.78;;
72639;SDS011;60683;51.730;8.762;2022-07-23T07:51:23;8.50;;;4.72;;
72639;SDS011;60683;51.730;8.762;2022-07-23T07:53:50;9.48;;;4.10;;
72639;SDS011;60683;51.730;8.762;2022-07-23T07:56:18;10.63;;;5.05;;
72639;SDS011;60683;51.730;8.762;2022-07-23T07:58:47;8.45;;;5.25;;
72639;SDS011;60683;51.730;8.762;2022-07-23T08:01:14;8.35;;;4.82;;
72639;SDS011;60683;51.730;8.762;2022-07-23T08:03:43;10.63;;;4.68;;
72639;SDS011;60683;51.730;8.762;2022-07-23T08:06:10;9.13;;;6.03;;
72639;SDS011;60683;51.730;8.762;2022-07-23T08:08:37;8.48;;;4.93;;
72639;SDS011;60683;51.730;8.762;2022-07-23T08:11:05;8.43;;;4.57;;
72639;SDS011;60683;51.730;8.762;2022-07-23T08:13:32;8.98;;;5.32;;
72639;SDS011;60683;51.730;8.762;2022-07-23T08:16:01;10.10;;;4.80;;
72639;SDS011;60683;51.730;8.762;2022-07-23T08:18:28;9.77;;;4.45;;
72639;SDS011;60683;51.730;8.762;2022-07-23T08:20:56;10.05;;;4.55;;
72639;SDS011;60683;51.730;8.762;2022-07-23T08:23:23;8.30;;;4.20;;
72639;SDS011;60683;51.730;8.762;2022-07-23T08:25:51;9.95;;;4.88;;
72639;SDS011;60683;51.730;8.762;2022-07-23T08:28:18;9.10;;;5.00;;
72639;SDS011;60683;51.730;8.762;2022-07-23T08:30:45;9.77;;;5.18;;
72639;SDS011;60683;51.730;8.762;2022-07-23T08:33:15;8.13;;;4.82;;
72639;SDS011;60683;51.730;8.762;2022-07-23T08:35:43;8.43;;;4.93;;
72639;SDS011;60683;51.730;8.762;2022-07-23T08:38:13;9.68;;;5.03;;
72639;SDS011;60683;51.730;8.762;2022-07-23T08:40:42;8.10;;;4.80;;
72639;SDS011;60683;51.730;8.762;2022-07-23T08:43:12;8.82;;;5.20;;
72639;SDS011;60683;51.730;8.762;2022-07-23T08:45:44;10.27;;;5.80;;
72639;SDS011;60683;51.730;8.762;2022-07-23T08:48:12;9.52;;;4.97;;
72639;SDS011;60683;51.730;8.762;2022-07-23T08:53:10;7.80;;;4.28;;
72639;SDS011;60683;51.730;8.762;2022-07-23T08:55:37;9.77;;;4.78;;
72639;SDS011;60683;51.730;8.762;2022-07-23T08:58:05;9.27;;;5.30;;
72639;SDS011;60683;51.730;8.762;2022-07-23T09:00:32;10.77;;;4.40;;
72639;SDS011;60683;51.730;8.762;2022-07-23T09:03:00;8.50;;;4.63;;
72639;SDS011;60683;51.730;8.762;2022-07-23T09:05:28;8.95;;;3.72;;
72639;SDS011;60683;51.730;8.762;2022-07-23T09:08:03;8.10;;;3.65;;
72639;SDS011;60683;51.730;8.762;2022-07-23T09:10:42;8.75;;;4.03;;
72639;SDS011;60683;51.730;8.762;2022-07-23T09:13:22;7.68;;;4.30;;
72639;SDS011;60683;51.730;8.762;2022-07-23T09:15:51;8.93;;;3.65;;
72639;SDS011;60683;51.730;8.762;2022-07-23T09:18:20;5.63;;;3.28;;
72639;SDS011;60683;51.730;8.762;2022-07-23T09:21:06;7.93;;;3.80;;
72639;SDS011;60683;51.730;8.762;2022-07-23T09:23:38;7.10;;;4.03;;
72639;SDS011;60683;51.730;8.762;2022-07-23T09:26:20;7.30;;;3.45;;
72639;SDS011;60683;51.730;8.762;2022-07-23T09:28:53;10.38;;;4.10;;
72639;SDS011;60683;51.730;8.762;2022-07-23T09:31:22;7.78;;;3.65;;
72639;SDS011;60683;51.730;8.762;2022-07-23T09:33:50;6.32;;;3.33;;
72639;SDS011;60683;51.730;8.762;2022-07-23T09:39:05;8.27;;;4.57;;
72639;SDS011;60683;51.730;8.762;2022-07-23T09:41:36;5.93;;;3.53;;
72639;SDS011;60683;51.730;8.762;2022-07-23T09:44:06;8.38;;;4.20;;
72639;SDS011;60683;51.730;8.762;2022-07-23T09:46:38;7.72;;;3.85;;
72639;SDS011;60683;51.730;8.762;2022-07-23T09:49:11;6.15;;;3.65;;
72639;SDS011;60683;51.730;8.762;2022-07-23T09:54:22;8.90;;;3.55;;
72639;SDS011;60683;51.730;8.762;2022-07-23T09:56:52;8.38;;;3.88;;
72639;SDS011;60683;51.730;8.762;2022-07-23T10:01:50;7.75;;;3.72;;
72639;SDS011;60683;51.730;8.762;2022-07-23T10:04:20;10.00;;;5.47;;
72639;SDS011;60683;51.730;8.762;2022-07-23T10:06:50;6.57;;;3.97;;
72639;SDS011;60683;51.730;8.762;2022-07-23T10:09:20;7.72;;;4.03;;
72639;SDS011;60683;51.730;8.762;2022-07-23T10:11:50;7.03;;;4.00;;
72639;SDS011;60683;51.730;8.762;2022-07-23T10:14:19;7.10;;;3.97;;
72639;SDS011;60683;51.730;8.762;2022-07-23T10:16:47;5.82;;;3.75;;
72639;SDS011;60683;51.730;8.762;2022-07-23T10:19:15;7.97;;;4.45;;
72639;SDS011;60683;51.730;8.762;2022-07-23T10:21:44;9.77;;;4.22;;
72639;SDS011;60683;51.730;8.762;2022-07-23T10:24:18;8.35;;;5.13;;
72639;SDS011;60683;51.730;8.762;2022-07-23T10:26:53;7.82;;;4.55;;
72639;SDS011;60683;51.730;8.762;2022-07-23T10:29:30;6.85;;;3.70;;
72639;SDS011;60683;51.730;8.762;2022-07-23T10:32:08;6.82;;;3.80;;
72639;SDS011;60683;51.730;8.762;2022-07-23T10:34:44;6.13;;;4.07;;
72639;SDS011;60683;51.730;8.762;2022-07-23T10:37:21;7.75;;;3.78;;
72639;SDS011;60683;51.730;8.762;2022-07-23T10:42:37;7.97;;;4.95;;
72639;SDS011;60683;51.730;8.762;2022-07-23T10:45:21;6.22;;;4.22;;
72639;SDS011;60683;51.730;8.762;2022-07-23T10:50:21;7.13;;;4.22;;
72639;SDS011;60683;51.730;8.762;2022-07-23T10:53:09;7.07;;;4.10;;
72639;SDS011;60683;51.730;8.762;2022-07-23T10:55:41;8.32;;;4.70;;
72639;SDS011;60683;51.730;8.762;2022-07-23T10:58:10;7.43;;;4.07;;
72639;SDS011;60683;51.730;8.762;2022-07-23T11:00:38;16.83;;;4.57;;
72639;SDS011;60683;51.730;8.762;2022-07-23T11:05:58;7.80;;;5.30;;
72639;SDS011;60683;51.730;8.762;2022-07-23T11:08:26;6.97;;;4.15;;
72639;SDS011;60683;51.730;8.762;2022-07-23T11:10:56;7.97;;;5.38;;
72639;SDS011;60683;51.730;8.762;2022-07-23T11:13:36;5.70;;;3.90;;
72639;SDS011;60683;51.730;8.762;2022-07-23T11:18:59;9.05;;;5.03;;
72639;SDS011;60683;51.730;8.762;2022-07-23T11:21:41;7.25;;;4.68;;
72639;SDS011;60683;51.730;8.762;2022-07-23T11:24:24;5.93;;;3.83;;
72639;SDS011;60683;51.730;8.762;2022-07-23T11:26:57;6.53;;;4.22;;
72639;SDS011;60683;51.730;8.762;2022-07-23T11:29:41;7.47;;;3.92;;
72639;SDS011;60683;51.730;8.762;2022-07-23T11:32:18;7.43;;;4.75;;
72639;SDS011;60683;51.730;8.762;2022-07-23T11:34:56;5.60;;;3.40;;
72639;SDS011;60683;51.730;8.762;2022-07-23T11:37:28;7.35;;;4.78;;
72639;SDS011;60683;51.730;8.762;2022-07-23T11:39:58;8.43;;;4.75;;
72639;SDS011;60683;51.730;8.762;2022-07-23T11:42:27;6.65;;;4.43;;
72639;SDS011;60683;51.730;8.762;2022-07-23T11:44:54;7.88;;;4.18;;
72639;SDS011;60683;51.730;8.762;2022-07-23T11:47:22;6.85;;;3.85;;
72639;SDS011;60683;51.730;8.762;2022-07-23T11:49:53;7.15;;;3.33;;
72639;SDS011;60683;51.730;8.762;2022-07-23T11:52:22;5.72;;;4.05;;
72639;SDS011;60683;51.730;8.762;2022-07-23T11:54:50;8.48;;;4.63;;
72639;SDS011;60683;51.730;8.762;2022-07-23T11:57:19;6.00;;;3.58;;
72639;SDS011;60683;51.730;8.762;2022-07-23T11:59:51;4.78;;;3.15;;
72639;SDS011;60683;51.730;8.762;2022-07-23T12:02:19;5.93;;;3.35;;
72639;SDS011;60683;51.730;8.762;2022-07-23T12:04:48;5.75;;;3.08;;
72639;SDS011;60683;51.730;8.762;2022-07-23T12:07:26;5.63;;;3.15;;
72639;SDS011;60683;51.730;8.762;2022-07-23T12:09:58;5.45;;;3.00;;
72639;SDS011;60683;51.730;8.762;2022-07-23T12:12:26;5.38;;;2.75;;
72639;SDS011;60683;51.730;8.762;2022-07-23T12:14:55;7.22;;;3.25;;
72639;SDS011;60683;51.730;8.762;2022-07-23T12:17:27;5.13;;;2.20;;
72639;SDS011;60683;51.730;8.762;2022-07-23T12:19:56;5.28;;;2.30;;
72639;SDS011;60683;51.730;8.762;2022-07-23T12:22:24;4.60;;;2.40;;
72639;SDS011;60683;51.730;8.762;2022-07-23T12:24:53;6.53;;;2.85;;
72639;SDS011;60683;51.730;8.762;2022-07-23T12:27:22;5.97;;;2.55;;
72639;SDS011;60683;51.730;8.762;2022-07-23T12:29:50;4.50;;;2.35;;
72639;SDS011;60683;51.730;8.762;2022-07-23T12:32:20;6.90;;;2.90;;
72639;SDS011;60683;51.730;8.762;2022-07-23T12:34:49;4.38;;;2.15;;
72639;SDS011;60683;51.730;8.762;2022-07-23T12:37:29;8.23;;;2.10;;
72639;SDS011;60683;51.730;8.762;2022-07-23T12:42:52;4.15;;;1.73;;
72639;SDS011;60683;51.730;8.762;2022-07-23T12:45:20;4.85;;;2.17;;
72639;SDS011;60683;51.730;8.762;2022-07-23T12:47:53;4.45;;;1.90;;
72639;SDS011;60683;51.730;8.762;2022-07-23T12:50:30;4.22;;;1.85;;
72639;SDS011;60683;51.730;8.762;2022-07-23T12:53:03;5.68;;;2.00;;
72639;SDS011;60683;51.730;8.762;2022-07-23T12:58:05;5.32;;;2.28;;
72639;SDS011;60683;51.730;8.762;2022-07-23T13:00:48;3.40;;;2.17;;
72639;SDS011;60683;51.730;8.762;2022-07-23T13:03:21;4.60;;;2.25;;
72639;SDS011;60683;51.730;8.762;2022-07-23T13:05:50;5.18;;;2.28;;
72639;SDS011;60683;51.730;8.762;2022-07-23T13:08:17;4.40;;;1.90;;
72639;SDS011;60683;51.730;8.762;2022-07-23T13:10:44;6.10;;;2.10;;
72639;SDS011;60683;51.730;8.762;2022-07-23T13:13:14;5.25;;;2.15;;
72639;SDS011;60683;51.730;8.762;2022-07-23T13:15:42;4.25;;;2.00;;
72639;SDS011;60683;51.730;8.762;2022-07-23T13:18:09;4.22;;;1.80;;
72639;SDS011;60683;51.730;8.762;2022-07-23T13:20:38;4.70;;;2.20;;
72639;SDS011;60683;51.730;8.762;2022-07-23T13:23:05;3.75;;;1.73;;
72639;SDS011;60683;51.730;8.762;2022-07-23T13:25:33;5.22;;;2.30;;
72639;SDS011;60683;51.730;8.762;2022-07-23T13:28:00;4.47;;;2.08;;
72639;SDS011;60683;51.730;8.762;2022-07-23T13:30:28;4.07;;;2.05;;
72639;SDS011;60683;51.730;8.762;2022-07-23T13:32:55;4.65;;;2.20;;
72639;SDS011;60683;51.730;8.762;2022-07-23T13:35:23;5.15;;;2.08;;
72639;SDS011;60683;51.730;8.762;2022-07-23T13:37:51;4.47;;;1.90;;
72639;SDS011;60683;51.730;8.762;2022-07-23T13:40:19;3.92;;;1.95;;
72639;SDS011;60683;51.730;8.762;2022-07-23T13:42:47;3.40;;;2.00;;
72639;SDS011;60683;51.730;8.762;2022-07-23T13:45:14;6.50;;;2.03;;
72639;SDS011;60683;51.730;8.762;2022-07-23T13:47:42;5.20;;;1.55;;
72639;SDS011;60683;51.730;8.762;2022-07-23T13:50:09;4.07;;;1.73;;
72639;SDS011;60683;51.730;8.762;2022-07-23T13:52:37;4.38;;;1.80;;
72639;SDS011;60683;51.730;8.762;2022-07-23T13:55:06;3.10;;;2.00;;
72639;SDS011;60683;51.730;8.762;2022-07-23T13:57:34;4.35;;;2.13;;
72639;SDS011;60683;51.730;8.762;2022-07-23T14:00:03;4.60;;;2.05;;
72639;SDS011;60683;51.730;8.762;2022-07-23T14:04:59;4.70;;;1.95;;
72639;SDS011;60683;51.730;8.762;2022-07-23T14:07:26;3.22;;;1.83;;
72639;SDS011;60683;51.730;8.762;2022-07-23T14:09:53;3.60;;;2.00;;
72639;SDS011;60683;51.730;8.762;2022-07-23T14:12:22;3.80;;;2.10;;
72639;SDS011;60683;51.730;8.762;2022-07-23T14:14:50;4.97;;;1.95;;
72639;SDS011;60683;51.730;8.762;2022-07-23T14:17:17;4.75;;;1.95;;
72639;SDS011;60683;51.730;8.762;2022-07-23T14:19:45;4.72;;;2.05;;
72639;SDS011;60683;51.730;8.762;2022-07-23T14:22:12;4.70;;;1.88;;
72639;SDS011;60683;51.730;8.762;2022-07-23T14:24:40;4.22;;;1.92;;
72639;SDS011;60683;51.730;8.762;2022-07-23T14:27:07;5.15;;;2.38;;
72639;SDS011;60683;51.730;8.762;2022-07-23T14:29:36;4.35;;;1.60;;
72639;SDS011;60683;51.730;8.762;2022-07-23T14:32:03;3.80;;;1.98;;
72639;SDS011;60683;51.730;8.762;2022-07-23T14:34:31;3.35;;;1.50;;
72639;SDS011;60683;51.730;8.762;2022-07-23T14:36:59;3.63;;;1.58;;
72639;SDS011;60683;51.730;8.762;2022-07-23T14:39:26;3.92;;;1.95;;
72639;SDS011;60683;51.730;8.762;2022-07-23T14:41:54;5.80;;;1.83;;
72639;SDS011;60683;51.730;8.762;2022-07-23T14:44:21;4.03;;;1.83;;
72639;SDS011;60683;51.730;8.762;2022-07-23T14:46:50;4.38;;;2.20;;
72639;SDS011;60683;51.730;8.762;2022-07-23T14:49:18;4.35;;;1.70;;
72639;SDS011;60683;51.730;8.762;2022-07-23T14:51:46;3.00;;;1.73;;
72639;SDS011;60683;51.730;8.762;2022-07-23T14:54:13;4.70;;;1.75;;
72639;SDS011;60683;51.730;8.762;2022-07-23T14:56:41;3.30;;;1.73;;
72639;SDS011;60683;51.730;8.762;2022-07-23T14:59:08;4.20;;;1.60;;
72639;SDS011;60683;51.730;8.762;2022-07-23T15:01:36;3.00;;;1.50;;
72639;SDS011;60683;51.730;8.762;2022-07-23T15:04:06;4.82;;;1.77;;
72639;SDS011;60683;51.730;8.762;2022-07-23T15:06:34;3.70;;;1.70;;
72639;SDS011;60683;51.730;8.762;2022-07-23T15:09:01;3.95;;;1.50;;
72639;SDS011;60683;51.730;8.762;2022-07-23T15:11:29;4.13;;;1.50;;
72639;SDS011;60683;51.730;8.762;2022-07-23T15:13:57;4.88;;;1.50;;
72639;SDS011;60683;51.730;8.762;2022-07-23T15:16:25;3.45;;;1.40;;
72639;SDS011;60683;51.730;8.762;2022-07-23T15:18:52;5.05;;;1.50;;